sensor_id;sensor_type;location;lat;lon;timestamp;temperature;humidity
5023;DHT22;2530;47.990;7.866;2023-05-07T00:01:23;13.30;99.90
5023;DHT22;2530;47.990;7.866;2023-05-07T00:03:49;13.30;99.90
5023;DHT22;2530;47.990;7.866;2023-05-07T00:06:14;13.20;99.90
5023;DHT22;2530;47.990;7.866;2023-05-07T00:08:40;13.10;99.90
5023;DHT22;2530;47.990;7.866;2023-05-07T00:11:05;13.20;99.90
5023;DHT22;2530;47.990;7.866;2023-05-07T00:13:31;13.20;99.90
5023;DHT22;2530;47.990;7.866;2023-05-07T00:16:01;13.20;99.90
5023;DHT22;2530;47.990;7.866;2023-05-07T00:18:27;13.20;99.90
5023;DHT22;2530;47.990;7.866;2023-05-07T00:20:52;13.20;99.90
5023;DHT22;2530;47.990;7.866;2023-05-07T00:23:18;13.10;99.90
5023;DHT22;2530;47.990;7.866;2023-05-07T00:25:43;13.10;99.90
5023;DHT22;2530;47.990;7.866;2023-05-07T00:28:09;13.00;99.90
5023;DHT22;2530;47.990;7.866;2023-05-07T00:30:34;13.00;99.90
5023;DHT22;2530;47.990;7.866;2023-05-07T00:33:00;12.90;99.90
5023;DHT22;2530;47.990;7.866;2023-05-07T00:35:26;13.00;99.90
5023;DHT22;2530;47.990;7.866;2023-05-07T00:37:51;13.00;99.90
5023;DHT22;2530;47.990;7.866;2023-05-07T00:40:17;12.90;99.90
5023;DHT22;2530;47.990;7.866;2023-05-07T00:42:42;12.90;99.90
5023;DHT22;2530;47.990;7.866;2023-05-07T00:45:15;12.80;99.90
5023;DHT22;2530;47.990;7.866;2023-05-07T00:47:41;12.90;99.90
5023;DHT22;2530;47.990;7.866;2023-05-07T00:50:08;12.90;99.90
5023;DHT22;2530;47.990;7.866;2023-05-07T00:52:35;12.90;99.90
5023;DHT22;2530;47.990;7.866;2023-05-07T00:55:05;12.70;99.90
5023;DHT22;2530;47.990;7.866;2023-05-07T00:57:35;12.80;99.90
5023;DHT22;2530;47.990;7.866;2023-05-07T01:00:04;12.80;99.90
5023;DHT22;2530;47.990;7.866;2023-05-07T01:02:29;12.80;99.90
5023;DHT22;2530;47.990;7.866;2023-05-07T01:04:55;12.80;99.90
5023;DHT22;2530;47.990;7.866;2023-05-07T01:07:22;12.80;99.90
5023;DHT22;2530;47.990;7.866;2023-05-07T01:09:48;12.80;99.90
5023;DHT22;2530;47.990;7.866;2023-05-07T01:12:15;12.80;99.90
5023;DHT22;2530;47.990;7.866;2023-05-07T01:14:41;12.80;99.90
5023;DHT22;2530;47.990;7.866;2023-05-07T01:17:07;12.70;99.90
5023;DHT22;2530;47.990;7.866;2023-05-07T01:19:33;12.80;99.90
5023;DHT22;2530;47.990;7.866;2023-05-07T01:22:03;12.70;99.90
5023;DHT22;2530;47.990;7.866;2023-05-07T01:24:32;12.70;99.90
5023;DHT22;2530;47.990;7.866;2023-05-07T01:26:58;12.80;99.90
5023;DHT22;2530;47.990;7.866;2023-05-07T01:29:24;12.70;99.90
5023;DHT22;2530;47.990;7.866;2023-05-07T01:31:50;12.70;99.90
5023;DHT22;2530;47.990;7.866;2023-05-07T01:34:17;12.70;99.90
5023;DHT22;2530;47.990;7.866;2023-05-07T01:36:44;12.50;99.90
5023;DHT22;2530;47.990;7.866;2023-05-07T01:39:10;12.50;99.90
5023;DHT22;2530;47.990;7.866;2023-05-07T01:41:36;12.60;99.90
5023;DHT22;2530;47.990;7.866;2023-05-07T01:44:03;12.50;99.90
5023;DHT22;2530;47.990;7.866;2023-05-07T01:46:31;12.60;99.90
5023;DHT22;2530;47.990;7.866;2023-05-07T01:48:57;12.50;99.90
5023;DHT22;2530;47.990;7.866;2023-05-07T01:51:23;12.50;99.90
5023;DHT22;2530;47.990;7.866;2023-05-07T01:53:49;12.40;99.90
5023;DHT22;2530;47.990;7.866;2023-05-07T01:56:17;12.40;99.90
5023;DHT22;2530;47.990;7.866;2023-05-07T01:58:47;12.30;99.90
5023;DHT22;2530;47.990;7.866;2023-05-07T02:01:13;12.30;99.90
5023;DHT22;2530;47.990;7.866;2023-05-07T02:03:39;12.30;99.90
5023;DHT22;2530;47.990;7.866;2023-05-07T02:06:04;12.20;99.90
5023;DHT22;2530;47.990;7.866;2023-05-07T02:08:30;12.20;99.90
5023;DHT22;2530;47.990;7.866;2023-05-07T02:10:56;12.20;99.90
5023;DHT22;2530;47.990;7.866;2023-05-07T02:13:21;12.20;99.90
5023;DHT22;2530;47.990;7.866;2023-05-07T02:15:48;12.20;99.90
5023;DHT22;2530;47.990;7.866;2023-05-07T02:18:16;12.20;99.90
5023;DHT22;2530;47.990;7.866;2023-05-07T02:20:42;12.20;99.90
5023;DHT22;2530;47.990;7.866;2023-05-07T02:23:07;12.20;99.90
5023;DHT22;2530;47.990;7.866;2023-05-07T02:25:33;12.30;99.90
5023;DHT22;2530;47.990;7.866;2023-05-07T02:27:58;12.30;99.90
5023;DHT22;2530;47.990;7.866;2023-05-07T02:30:24;12.40;99.90
5023;DHT22;2530;47.990;7.866;2023-05-07T02:32:50;12.40;99.90
5023;DHT22;2530;47.990;7.866;2023-05-07T02:35:16;12.40;99.90
5023;DHT22;2530;47.990;7.866;2023-05-07T02:37:41;12.30;99.90
5023;DHT22;2530;47.990;7.866;2023-05-07T02:40:07;12.20;99.90
5023;DHT22;2530;47.990;7.866;2023-05-07T02:42:33;12.20;99.90
5023;DHT22;2530;47.990;7.866;2023-05-07T02:44:58;12.30;99.90
5023;DHT22;2530;47.990;7.866;2023-05-07T02:47:24;12.30;99.90
5023;DHT22;2530;47.990;7.866;2023-05-07T02:49:52;12.30;99.90
5023;DHT22;2530;47.990;7.866;2023-05-07T02:52:18;12.30;99.90
5023;DHT22;2530;47.990;7.866;2023-05-07T02:54:43;12.30;99.90
5023;DHT22;2530;47.990;7.866;2023-05-07T02:57:09;12.40;99.90
5023;DHT22;2530;47.990;7.866;2023-05-07T02:59:35;12.40;99.90
5023;DHT22;2530;47.990;7.866;2023-05-07T03:02:01;12.40;99.90
5023;DHT22;2530;47.990;7.866;2023-05-07T03:04:26;12.40;99.90
5023;DHT22;2530;47.990;7.866;2023-05-07T03:06:52;12.40;99.90
5023;DHT22;2530;47.990;7.866;2023-05-07T03:09:17;12.40;99.90
5023;DHT22;2530;47.990;7.866;2023-05-07T03:11:43;12.30;99.90
5023;DHT22;2530;47.990;7.866;2023-05-07T03:14:08;12.30;99.90
5023;DHT22;2530;47.990;7.866;2023-05-07T03:16:34;12.20;99.90
5023;DHT22;2530;47.990;7.866;2023-05-07T03:18:59;12.20;99.90
5023;DHT22;2530;47.990;7.866;2023-05-07T03:21:25;12.10;99.90
5023;DHT22;2530;47.990;7.866;2023-05-07T03:23:51;12.00;99.90
5023;DHT22;2530;47.990;7.866;2023-05-07T03:26:17;12.00;99.90
5023;DHT22;2530;47.990;7.866;2023-05-07T03:28:42;12.00;99.90
5023;DHT22;2530;47.990;7.866;2023-05-07T03:31:08;11.90;99.90
5023;DHT22;2530;47.990;7.866;2023-05-07T03:33:34;11.90;99.90
5023;DHT22;2530;47.990;7.866;2023-05-07T03:36:00;11.80;99.90
5023;DHT22;2530;47.990;7.866;2023-05-07T03:38:26;11.60;99.90
5023;DHT22;2530;47.990;7.866;2023-05-07T03:40:52;11.70;99.90
5023;DHT22;2530;47.990;7.866;2023-05-07T03:43:17;11.80;99.90
5023;DHT22;2530;47.990;7.866;2023-05-07T03:45:43;11.80;99.90
5023;DHT22;2530;47.990;7.866;2023-05-07T03:48:08;11.70;99.90
5023;DHT22;2530;47.990;7.866;2023-05-07T03:50:34;11.60;99.90
5023;DHT22;2530;47.990;7.866;2023-05-07T03:52:59;11.50;99.90
5023;DHT22;2530;47.990;7.866;2023-05-07T03:55:25;11.50;99.90
5023;DHT22;2530;47.990;7.866;2023-05-07T03:57:51;11.70;99.90
5023;DHT22;2530;47.990;7.866;2023-05-07T04:00:16;11.70;99.90
5023;DHT22;2530;47.990;7.866;2023-05-07T04:02:42;11.90;99.90
5023;DHT22;2530;47.990;7.866;2023-05-07T04:05:08;11.80;99.90
5023;DHT22;2530;47.990;7.866;2023-05-07T04:07:33;11.80;99.90
5023;DHT22;2530;47.990;7.866;2023-05-07T04:09:59;11.80;99.90
5023;DHT22;2530;47.990;7.866;2023-05-07T04:12:24;11.80;99.90
5023;DHT22;2530;47.990;7.866;2023-05-07T04:14:50;11.90;99.90
5023;DHT22;2530;47.990;7.866;2023-05-07T04:17:15;11.90;99.90
5023;DHT22;2530;47.990;7.866;2023-05-07T04:19:41;11.90;99.90
5023;DHT22;2530;47.990;7.866;2023-05-07T04:22:11;12.00;99.90
5023;DHT22;2530;47.990;7.866;2023-05-07T04:24:37;12.20;99.90
5023;DHT22;2530;47.990;7.866;2023-05-07T04:27:02;12.00;99.90
5023;DHT22;2530;47.990;7.866;2023-05-07T04:29:28;12.00;99.90
5023;DHT22;2530;47.990;7.866;2023-05-07T04:31:54;11.90;99.90
5023;DHT22;2530;47.990;7.866;2023-05-07T04:34:21;11.80;99.90
5023;DHT22;2530;47.990;7.866;2023-05-07T04:36:47;11.90;99.90
5023;DHT22;2530;47.990;7.866;2023-05-07T04:39:13;11.90;99.90
5023;DHT22;2530;47.990;7.866;2023-05-07T04:41:39;12.10;99.90
5023;DHT22;2530;47.990;7.866;2023-05-07T04:44:04;12.10;99.90
5023;DHT22;2530;47.990;7.866;2023-05-07T04:46:31;12.20;99.90
5023;DHT22;2530;47.990;7.866;2023-05-07T04:48:56;12.20;99.90
5023;DHT22;2530;47.990;7.866;2023-05-07T04:51:22;12.40;99.90
5023;DHT22;2530;47.990;7.866;2023-05-07T04:53:48;12.30;99.90
5023;DHT22;2530;47.990;7.866;2023-05-07T04:56:14;12.40;99.90
5023;DHT22;2530;47.990;7.866;2023-05-07T04:58:39;12.40;99.90
5023;DHT22;2530;47.990;7.866;2023-05-07T05:01:05;12.50;99.90
5023;DHT22;2530;47.990;7.866;2023-05-07T05:03:31;12.60;99.90
5023;DHT22;2530;47.990;7.866;2023-05-07T05:05:56;12.70;99.90
5023;DHT22;2530;47.990;7.866;2023-05-07T05:08:24;12.80;99.90
5023;DHT22;2530;47.990;7.866;2023-05-07T05:10:50;12.80;99.90
5023;DHT22;2530;47.990;7.866;2023-05-07T05:13:16;12.90;99.90
5023;DHT22;2530;47.990;7.866;2023-05-07T05:15:41;13.00;99.90
5023;DHT22;2530;47.990;7.866;2023-05-07T05:18:07;13.10;99.90
5023;DHT22;2530;47.990;7.866;2023-05-07T05:20:32;13.00;99.90
5023;DHT22;2530;47.990;7.866;2023-05-07T05:22:58;13.10;99.90
5023;DHT22;2530;47.990;7.866;2023-05-07T05:25:23;13.20;99.90
5023;DHT22;2530;47.990;7.866;2023-05-07T05:27:49;13.30;99.90
5023;DHT22;2530;47.990;7.866;2023-05-07T05:30:14;13.40;99.90
5023;DHT22;2530;47.990;7.866;2023-05-07T05:32:40;13.30;99.90
5023;DHT22;2530;47.990;7.866;2023-05-07T05:35:06;13.40;99.90
5023;DHT22;2530;47.990;7.866;2023-05-07T05:37:31;13.60;99.90
5023;DHT22;2530;47.990;7.866;2023-05-07T05:39:57;13.50;99.90
5023;DHT22;2530;47.990;7.866;2023-05-07T05:42:23;13.30;99.90
5023;DHT22;2530;47.990;7.866;2023-05-07T05:44:48;13.40;99.90
5023;DHT22;2530;47.990;7.866;2023-05-07T05:47:14;13.50;99.90
5023;DHT22;2530;47.990;7.866;2023-05-07T05:49:39;13.60;99.90
5023;DHT22;2530;47.990;7.866;2023-05-07T05:52:05;13.70;99.90
5023;DHT22;2530;47.990;7.866;2023-05-07T05:54:31;13.80;99.90
5023;DHT22;2530;47.990;7.866;2023-05-07T05:56:56;13.90;99.90
5023;DHT22;2530;47.990;7.866;2023-05-07T05:59:22;14.00;99.90
5023;DHT22;2530;47.990;7.866;2023-05-07T06:01:48;14.10;99.90
5023;DHT22;2530;47.990;7.866;2023-05-07T06:04:13;14.40;99.90
5023;DHT22;2530;47.990;7.866;2023-05-07T06:06:39;14.50;99.90
5023;DHT22;2530;47.990;7.866;2023-05-07T06:09:04;14.50;99.90
5023;DHT22;2530;47.990;7.866;2023-05-07T06:11:31;14.70;99.90
5023;DHT22;2530;47.990;7.866;2023-05-07T06:13:57;14.80;99.90
5023;DHT22;2530;47.990;7.866;2023-05-07T06:16:24;15.00;99.90
5023;DHT22;2530;47.990;7.866;2023-05-07T06:18:50;15.00;99.90
5023;DHT22;2530;47.990;7.866;2023-05-07T06:21:15;15.00;99.90
5023;DHT22;2530;47.990;7.866;2023-05-07T06:23:41;15.10;99.90
5023;DHT22;2530;47.990;7.866;2023-05-07T06:26:07;15.30;99.90
5023;DHT22;2530;47.990;7.866;2023-05-07T06:28:33;15.40;99.90
5023;DHT22;2530;47.990;7.866;2023-05-07T06:31:18;15.50;99.90
5023;DHT22;2530;47.990;7.866;2023-05-07T06:33:48;15.50;99.90
5023;DHT22;2530;47.990;7.866;2023-05-07T06:36:13;15.50;99.90
5023;DHT22;2530;47.990;7.866;2023-05-07T06:38:39;15.70;99.90
5023;DHT22;2530;47.990;7.866;2023-05-07T06:41:06;15.80;99.90
5023;DHT22;2530;47.990;7.866;2023-05-07T06:43:31;15.70;99.90
5023;DHT22;2530;47.990;7.866;2023-05-07T06:45:57;15.70;99.90
5023;DHT22;2530;47.990;7.866;2023-05-07T06:48:22;15.70;99.90
5023;DHT22;2530;47.990;7.866;2023-05-07T06:50:48;15.50;99.90
5023;DHT22;2530;47.990;7.866;2023-05-07T06:53:13;15.50;99.90
5023;DHT22;2530;47.990;7.866;2023-05-07T06:55:39;15.70;99.90
5023;DHT22;2530;47.990;7.866;2023-05-07T06:58:05;15.80;99.90
5023;DHT22;2530;47.990;7.866;2023-05-07T07:00:31;15.90;99.90
5023;DHT22;2530;47.990;7.866;2023-05-07T07:02:57;15.90;99.90
5023;DHT22;2530;47.990;7.866;2023-05-07T07:05:22;15.90;99.90
5023;DHT22;2530;47.990;7.866;2023-05-07T07:07:48;16.10;99.90
5023;DHT22;2530;47.990;7.866;2023-05-07T07:10:23;16.00;99.90
5023;DHT22;2530;47.990;7.866;2023-05-07T07:12:49;16.10;99.90
5023;DHT22;2530;47.990;7.866;2023-05-07T07:15:15;16.30;99.90
5023;DHT22;2530;47.990;7.866;2023-05-07T07:17:41;16.30;99.90
5023;DHT22;2530;47.990;7.866;2023-05-07T07:20:07;16.30;99.90
5023;DHT22;2530;47.990;7.866;2023-05-07T07:22:32;16.40;99.90
5023;DHT22;2530;47.990;7.866;2023-05-07T07:24:58;16.40;99.90
5023;DHT22;2530;47.990;7.866;2023-05-07T07:27:23;16.40;99.90
5023;DHT22;2530;47.990;7.866;2023-05-07T07:29:49;16.50;99.90
5023;DHT22;2530;47.990;7.866;2023-05-07T07:32:15;16.60;99.90
5023;DHT22;2530;47.990;7.866;2023-05-07T07:34:40;16.70;99.90
5023;DHT22;2530;47.990;7.866;2023-05-07T07:37:06;16.60;99.90
5023;DHT22;2530;47.990;7.866;2023-05-07T07:39:32;16.70;99.90
5023;DHT22;2530;47.990;7.866;2023-05-07T07:41:58;16.80;99.90
5023;DHT22;2530;47.990;7.866;2023-05-07T07:44:23;16.80;99.90
5023;DHT22;2530;47.990;7.866;2023-05-07T07:46:49;16.90;99.90
5023;DHT22;2530;47.990;7.866;2023-05-07T07:49:15;17.00;99.90
5023;DHT22;2530;47.990;7.866;2023-05-07T07:51:40;17.00;99.90
5023;DHT22;2530;47.990;7.866;2023-05-07T07:54:06;17.00;99.90
5023;DHT22;2530;47.990;7.866;2023-05-07T07:56:34;17.10;99.90
5023;DHT22;2530;47.990;7.866;2023-05-07T07:59:00;17.10;99.90
5023;DHT22;2530;47.990;7.866;2023-05-07T08:01:26;17.20;99.90
5023;DHT22;2530;47.990;7.866;2023-05-07T08:03:51;17.30;99.90
5023;DHT22;2530;47.990;7.866;2023-05-07T08:06:17;17.40;99.90
5023;DHT22;2530;47.990;7.866;2023-05-07T08:08:43;17.50;99.90
5023;DHT22;2530;47.990;7.866;2023-05-07T08:11:09;17.50;99.90
5023;DHT22;2530;47.990;7.866;2023-05-07T08:13:34;17.70;99.90
5023;DHT22;2530;47.990;7.866;2023-05-07T08:16:00;17.80;99.90
5023;DHT22;2530;47.990;7.866;2023-05-07T08:18:26;17.90;99.90
5023;DHT22;2530;47.990;7.866;2023-05-07T08:20:53;18.10;99.90
5023;DHT22;2530;47.990;7.866;2023-05-07T08:23:19;18.10;99.90
5023;DHT22;2530;47.990;7.866;2023-05-07T08:25:44;18.30;99.90
5023;DHT22;2530;47.990;7.866;2023-05-07T08:28:10;18.20;99.90
5023;DHT22;2530;47.990;7.866;2023-05-07T08:30:36;18.30;96.20
5023;DHT22;2530;47.990;7.866;2023-05-07T08:33:01;18.60;96.50
5023;DHT22;2530;47.990;7.866;2023-05-07T08:35:27;18.40;99.90
5023;DHT22;2530;47.990;7.866;2023-05-07T08:37:53;18.60;90.30
5023;DHT22;2530;47.990;7.866;2023-05-07T08:40:19;18.70;88.40
5023;DHT22;2530;47.990;7.866;2023-05-07T08:42:48;18.70;93.20
5023;DHT22;2530;47.990;7.866;2023-05-07T08:45:14;18.90;75.90
5023;DHT22;2530;47.990;7.866;2023-05-07T08:47:43;18.70;89.90
5023;DHT22;2530;47.990;7.866;2023-05-07T08:50:12;18.70;82.20
5023;DHT22;2530;47.990;7.866;2023-05-07T08:52:39;18.70;87.00
5023;DHT22;2530;47.990;7.866;2023-05-07T08:55:05;18.70;82.90
5023;DHT22;2530;47.990;7.866;2023-05-07T08:57:31;18.60;82.70
5023;DHT22;2530;47.990;7.866;2023-05-07T08:59:57;18.80;91.90
5023;DHT22;2530;47.990;7.866;2023-05-07T09:02:22;18.80;86.30
5023;DHT22;2530;47.990;7.866;2023-05-07T09:04:48;18.90;83.30
5023;DHT22;2530;47.990;7.866;2023-05-07T09:07:14;19.00;92.10
5023;DHT22;2530;47.990;7.866;2023-05-07T09:09:39;19.00;92.90
5023;DHT22;2530;47.990;7.866;2023-05-07T09:12:05;19.20;96.30
5023;DHT22;2530;47.990;7.866;2023-05-07T09:14:31;19.20;98.30
5023;DHT22;2530;47.990;7.866;2023-05-07T09:16:56;19.40;99.90
5023;DHT22;2530;47.990;7.866;2023-05-07T09:19:26;19.40;99.90
5023;DHT22;2530;47.990;7.866;2023-05-07T09:22:02;19.40;99.90
5023;DHT22;2530;47.990;7.866;2023-05-07T09:24:28;19.60;99.90
5023;DHT22;2530;47.990;7.866;2023-05-07T09:26:59;19.50;99.90
5023;DHT22;2530;47.990;7.866;2023-05-07T09:29:25;19.50;99.90
5023;DHT22;2530;47.990;7.866;2023-05-07T09:31:51;19.40;99.90
5023;DHT22;2530;47.990;7.866;2023-05-07T09:34:16;19.70;99.90
5023;DHT22;2530;47.990;7.866;2023-05-07T09:36:42;19.70;99.90
5023;DHT22;2530;47.990;7.866;2023-05-07T09:39:07;19.80;92.20
5023;DHT22;2530;47.990;7.866;2023-05-07T09:41:43;19.50;91.10
5023;DHT22;2530;47.990;7.866;2023-05-07T09:44:09;19.70;90.10
5023;DHT22;2530;47.990;7.866;2023-05-07T09:46:36;19.80;84.60
5023;DHT22;2530;47.990;7.866;2023-05-07T09:49:07;19.80;78.60
5023;DHT22;2530;47.990;7.866;2023-05-07T09:51:41;19.80;78.00
5023;DHT22;2530;47.990;7.866;2023-05-07T09:54:07;19.90;78.40
5023;DHT22;2530;47.990;7.866;2023-05-07T09:56:33;20.10;72.60
5023;DHT22;2530;47.990;7.866;2023-05-07T09:59:03;19.80;85.60
5023;DHT22;2530;47.990;7.866;2023-05-07T10:01:30;19.70;86.60
5023;DHT22;2530;47.990;7.866;2023-05-07T10:03:57;19.30;96.50
5023;DHT22;2530;47.990;7.866;2023-05-07T10:06:24;19.40;98.60
5023;DHT22;2530;47.990;7.866;2023-05-07T10:08:52;19.30;99.90
5023;DHT22;2530;47.990;7.866;2023-05-07T10:11:18;19.00;99.90
5023;DHT22;2530;47.990;7.866;2023-05-07T10:13:46;18.80;99.90
5023;DHT22;2530;47.990;7.866;2023-05-07T10:16:13;18.80;99.90
5023;DHT22;2530;47.990;7.866;2023-05-07T10:18:40;18.70;99.90
5023;DHT22;2530;47.990;7.866;2023-05-07T10:21:17;17.70;99.90
5023;DHT22;2530;47.990;7.866;2023-05-07T10:23:50;17.80;99.90
5023;DHT22;2530;47.990;7.866;2023-05-07T10:26:17;17.40;99.90
5023;DHT22;2530;47.990;7.866;2023-05-07T10:28:47;17.80;99.90
5023;DHT22;2530;47.990;7.866;2023-05-07T10:31:28;16.70;99.90
5023;DHT22;2530;47.990;7.866;2023-05-07T10:33:55;16.10;99.90
5023;DHT22;2530;47.990;7.866;2023-05-07T10:36:22;15.90;99.90
5023;DHT22;2530;47.990;7.866;2023-05-07T10:38:48;15.80;99.90
5023;DHT22;2530;47.990;7.866;2023-05-07T10:41:16;15.70;99.90
5023;DHT22;2530;47.990;7.866;2023-05-07T10:44:01;18.90;99.90
5023;DHT22;2530;47.990;7.866;2023-05-07T10:46:50;18.90;99.90
5023;DHT22;2530;47.990;7.866;2023-05-07T10:49:18;14.60;99.90
5023;DHT22;2530;47.990;7.866;2023-05-07T10:51:44;16.00;99.90
5023;DHT22;2530;47.990;7.866;2023-05-07T10:56:41;16.30;99.90
5023;DHT22;2530;47.990;7.866;2023-05-07T11:02:02;17.60;99.90
5023;DHT22;2530;47.990;7.866;2023-05-07T11:04:32;16.90;99.90
5023;DHT22;2530;47.990;7.866;2023-05-07T11:09:57;17.40;99.90
5023;DHT22;2530;47.990;7.866;2023-05-07T11:15:11;17.70;99.90
5023;DHT22;2530;47.990;7.866;2023-05-07T11:17:57;18.00;99.90
5023;DHT22;2530;47.990;7.866;2023-05-07T11:20:56;18.20;99.90
5023;DHT22;2530;47.990;7.866;2023-05-07T11:26:10;18.70;99.90
5023;DHT22;2530;47.990;7.866;2023-05-07T11:28:38;20.00;99.90
5023;DHT22;2530;47.990;7.866;2023-05-07T11:31:04;18.00;99.90
5023;DHT22;2530;47.990;7.866;2023-05-07T11:33:33;19.30;99.90
5023;DHT22;2530;47.990;7.866;2023-05-07T11:36:00;20.10;99.90
5023;DHT22;2530;47.990;7.866;2023-05-07T11:38:26;20.20;99.90
5023;DHT22;2530;47.990;7.866;2023-05-07T11:40:57;20.30;99.90
5023;DHT22;2530;47.990;7.866;2023-05-07T11:43:26;20.00;99.90
5023;DHT22;2530;47.990;7.866;2023-05-07T11:45:52;19.60;99.90
5023;DHT22;2530;47.990;7.866;2023-05-07T11:48:18;19.30;99.90
5023;DHT22;2530;47.990;7.866;2023-05-07T11:50:59;19.10;99.90
5023;DHT22;2530;47.990;7.866;2023-05-07T11:53:26;18.90;99.90
5023;DHT22;2530;47.990;7.866;2023-05-07T11:55:57;20.00;99.90
5023;DHT22;2530;47.990;7.866;2023-05-07T11:58:24;18.10;99.90
5023;DHT22;2530;47.990;7.866;2023-05-07T12:00:51;18.70;99.90
5023;DHT22;2530;47.990;7.866;2023-05-07T12:03:17;18.60;99.90
5023;DHT22;2530;47.990;7.866;2023-05-07T12:05:46;19.00;99.90
5023;DHT22;2530;47.990;7.866;2023-05-07T12:08:16;19.90;99.90
5023;DHT22;2530;47.990;7.866;2023-05-07T12:10:46;18.20;99.90
5023;DHT22;2530;47.990;7.866;2023-05-07T12:13:17;18.70;99.90
5023;DHT22;2530;47.990;7.866;2023-05-07T12:15:43;18.80;99.90
5023;DHT22;2530;47.990;7.866;2023-05-07T12:18:15;19.10;99.90
5023;DHT22;2530;47.990;7.866;2023-05-07T12:20:40;19.30;99.90
5023;DHT22;2530;47.990;7.866;2023-05-07T12:23:06;21.20;99.90
5023;DHT22;2530;47.990;7.866;2023-05-07T12:25:35;20.60;99.90
5023;DHT22;2530;47.990;7.866;2023-05-07T12:28:05;19.90;99.90
5023;DHT22;2530;47.990;7.866;2023-05-07T12:30:40;19.70;99.90
5023;DHT22;2530;47.990;7.866;2023-05-07T12:33:07;19.50;99.90
5023;DHT22;2530;47.990;7.866;2023-05-07T12:35:40;19.20;99.90
5023;DHT22;2530;47.990;7.866;2023-05-07T12:38:14;19.10;99.90
5023;DHT22;2530;47.990;7.866;2023-05-07T12:40:44;19.20;99.90
5023;DHT22;2530;47.990;7.866;2023-05-07T12:43:27;18.00;99.90
5023;DHT22;2530;47.990;7.866;2023-05-07T12:45:59;19.30;99.90
5023;DHT22;2530;47.990;7.866;2023-05-07T12:48:25;19.30;99.90
5023;DHT22;2530;47.990;7.866;2023-05-07T12:50:56;19.00;99.90
5023;DHT22;2530;47.990;7.866;2023-05-07T12:53:24;18.90;99.90
5023;DHT22;2530;47.990;7.866;2023-05-07T12:55:52;19.30;99.90
5023;DHT22;2530;47.990;7.866;2023-05-07T12:58:31;19.10;99.90
5023;DHT22;2530;47.990;7.866;2023-05-07T13:00:59;18.90;99.90
5023;DHT22;2530;47.990;7.866;2023-05-07T13:03:28;20.40;99.90
5023;DHT22;2530;47.990;7.866;2023-05-07T13:05:57;18.80;99.90
5023;DHT22;2530;47.990;7.866;2023-05-07T13:08:30;20.00;99.90
5023;DHT22;2530;47.990;7.866;2023-05-07T13:11:01;19.40;99.90
5023;DHT22;2530;47.990;7.866;2023-05-07T13:13:34;19.30;99.90
5023;DHT22;2530;47.990;7.866;2023-05-07T13:16:00;18.90;99.90
5023;DHT22;2530;47.990;7.866;2023-05-07T13:18:27;18.80;99.90
5023;DHT22;2530;47.990;7.866;2023-05-07T13:20:53;19.90;99.90
5023;DHT22;2530;47.990;7.866;2023-05-07T13:23:19;19.10;99.90
5023;DHT22;2530;47.990;7.866;2023-05-07T13:25:45;18.90;99.90
5023;DHT22;2530;47.990;7.866;2023-05-07T13:28:10;18.90;99.90
5023;DHT22;2530;47.990;7.866;2023-05-07T13:30:36;18.80;99.90
5023;DHT22;2530;47.990;7.866;2023-05-07T13:33:02;19.20;99.90
5023;DHT22;2530;47.990;7.866;2023-05-07T13:35:28;19.10;99.90
5023;DHT22;2530;47.990;7.866;2023-05-07T13:37:53;19.00;99.90
5023;DHT22;2530;47.990;7.866;2023-05-07T13:40:20;20.80;99.90
5023;DHT22;2530;47.990;7.866;2023-05-07T13:42:46;19.00;99.90
5023;DHT22;2530;47.990;7.866;2023-05-07T13:45:12;19.20;99.90
5023;DHT22;2530;47.990;7.866;2023-05-07T13:47:42;19.10;99.90
5023;DHT22;2530;47.990;7.866;2023-05-07T13:50:09;19.30;99.90
5023;DHT22;2530;47.990;7.866;2023-05-07T13:52:35;19.70;99.90
5023;DHT22;2530;47.990;7.866;2023-05-07T13:55:00;20.20;99.90
5023;DHT22;2530;47.990;7.866;2023-05-07T13:57:26;20.00;99.90
5023;DHT22;2530;47.990;7.866;2023-05-07T13:59:51;19.40;99.90
5023;DHT22;2530;47.990;7.866;2023-05-07T14:02:17;20.10;99.90
5023;DHT22;2530;47.990;7.866;2023-05-07T14:04:42;20.50;99.90
5023;DHT22;2530;47.990;7.866;2023-05-07T14:07:08;20.70;99.90
5023;DHT22;2530;47.990;7.866;2023-05-07T14:09:34;20.40;95.50
5023;DHT22;2530;47.990;7.866;2023-05-07T14:11:59;20.00;99.90
5023;DHT22;2530;47.990;7.866;2023-05-07T14:14:25;20.10;99.90
5023;DHT22;2530;47.990;7.866;2023-05-07T14:16:51;19.70;99.90
5023;DHT22;2530;47.990;7.866;2023-05-07T14:19:16;19.50;99.90
5023;DHT22;2530;47.990;7.866;2023-05-07T14:21:42;19.90;99.90
5023;DHT22;2530;47.990;7.866;2023-05-07T14:24:07;21.40;99.90
5023;DHT22;2530;47.990;7.866;2023-05-07T14:26:34;19.80;99.90
5023;DHT22;2530;47.990;7.866;2023-05-07T14:29:00;19.80;99.90
5023;DHT22;2530;47.990;7.866;2023-05-07T14:31:25;19.60;99.90
5023;DHT22;2530;47.990;7.866;2023-05-07T14:33:51;19.90;99.90
5023;DHT22;2530;47.990;7.866;2023-05-07T14:36:17;19.70;99.90
5023;DHT22;2530;47.990;7.866;2023-05-07T14:38:45;21.10;99.90
5023;DHT22;2530;47.990;7.866;2023-05-07T14:41:11;19.90;99.90
5023;DHT22;2530;47.990;7.866;2023-05-07T14:43:36;19.70;99.90
5023;DHT22;2530;47.990;7.866;2023-05-07T14:46:02;20.00;96.00
5023;DHT22;2530;47.990;7.866;2023-05-07T14:48:27;20.30;78.70
5023;DHT22;2530;47.990;7.866;2023-05-07T14:50:53;20.80;99.90
5023;DHT22;2530;47.990;7.866;2023-05-07T14:53:18;21.40;84.20
5023;DHT22;2530;47.990;7.866;2023-05-07T14:55:44;21.70;34.90
5023;DHT22;2530;47.990;7.866;2023-05-07T14:58:10;21.30;32.80
5023;DHT22;2530;47.990;7.866;2023-05-07T15:00:36;21.10;39.00
5023;DHT22;2530;47.990;7.866;2023-05-07T15:03:06;20.90;43.50
5023;DHT22;2530;47.990;7.866;2023-05-07T15:05:32;21.20;56.10
5023;DHT22;2530;47.990;7.866;2023-05-07T15:07:58;21.40;99.90
5023;DHT22;2530;47.990;7.866;2023-05-07T15:10:23;21.10;41.40
5023;DHT22;2530;47.990;7.866;2023-05-07T15:12:49;21.00;20.10
5023;DHT22;2530;47.990;7.866;2023-05-07T15:15:14;21.50;11.10
5023;DHT22;2530;47.990;7.866;2023-05-07T15:17:40;21.10;8.80
5023;DHT22;2530;47.990;7.866;2023-05-07T15:20:06;21.10;13.60
5023;DHT22;2530;47.990;7.866;2023-05-07T15:22:32;20.70;16.90
5023;DHT22;2530;47.990;7.866;2023-05-07T15:24:58;21.00;13.80
5023;DHT22;2530;47.990;7.866;2023-05-07T15:27:24;20.70;21.50
5023;DHT22;2530;47.990;7.866;2023-05-07T15:29:49;19.70;22.70
5023;DHT22;2530;47.990;7.866;2023-05-07T15:32:15;20.50;23.90
5023;DHT22;2530;47.990;7.866;2023-05-07T15:34:40;22.80;23.10
5023;DHT22;2530;47.990;7.866;2023-05-07T15:37:06;20.00;18.90
5023;DHT22;2530;47.990;7.866;2023-05-07T15:39:32;21.30;18.50
5023;DHT22;2530;47.990;7.866;2023-05-07T15:41:57;20.90;21.10
5023;DHT22;2530;47.990;7.866;2023-05-07T15:44:23;20.60;20.50
5023;DHT22;2530;47.990;7.866;2023-05-07T15:46:52;22.50;20.40
5023;DHT22;2530;47.990;7.866;2023-05-07T15:49:18;20.70;15.40
5023;DHT22;2530;47.990;7.866;2023-05-07T15:51:43;21.40;18.60
5023;DHT22;2530;47.990;7.866;2023-05-07T15:54:09;20.50;21.40
5023;DHT22;2530;47.990;7.866;2023-05-07T15:56:35;21.30;21.20
5023;DHT22;2530;47.990;7.866;2023-05-07T15:59:00;20.50;18.30
5023;DHT22;2530;47.990;7.866;2023-05-07T16:01:27;20.10;28.60
5023;DHT22;2530;47.990;7.866;2023-05-07T16:03:53;23.30;35.10
5023;DHT22;2530;47.990;7.866;2023-05-07T16:06:18;22.40;21.50
5023;DHT22;2530;47.990;7.866;2023-05-07T16:08:44;21.20;19.60
5023;DHT22;2530;47.990;7.866;2023-05-07T16:11:09;20.00;18.10
5023;DHT22;2530;47.990;7.866;2023-05-07T16:13:35;20.30;15.90